sensor_id;sensor_type;location;lat;lon;timestamp;P1;durP1;ratioP1;P2;durP2;ratioP2
11576;SDS011;5844;51.496;6.788;2024-03-02T00:02:13;0.00;;;0.00;;
11576;SDS011;5844;51.496;6.788;2024-03-02T00:04:39;0.10;;;0.10;;
11576;SDS011;5844;51.496;6.788;2024-03-02T00:07:06;0.00;;;0.00;;
11576;SDS011;5844;51.496;6.788;2024-03-02T00:09:32;0.10;;;0.10;;
11576;SDS011;5844;51.496;6.788;2024-03-02T00:12:01;0.00;;;0.00;;
11576;SDS011;5844;51.496;6.788;2024-03-02T00:14:29;0.10;;;0.10;;
11576;SDS011;5844;51.496;6.788;2024-03-02T00:16:55;0.00;;;0.00;;
11576;SDS011;5844;51.496;6.788;2024-03-02T00:19:21;0.20;;;0.20;;
11576;SDS011;5844;51.496;6.788;2024-03-02T00:21:47;0.00;;;0.00;;
11576;SDS011;5844;51.496;6.788;2024-03-02T00:24:32;0.00;;;0.00;;
11576;SDS011;5844;51.496;6.788;2024-03-02T00:26:59;0.10;;;0.10;;
11576;SDS011;5844;51.496;6.788;2024-03-02T00:29:26;0.10;;;0.10;;
11576;SDS011;5844;51.496;6.788;2024-03-02T00:34:29;0.10;;;0.10;;
11576;SDS011;5844;51.496;6.788;2024-03-02T00:36:57;0.00;;;0.00;;
11576;SDS011;5844;51.496;6.788;2024-03-02T00:39:24;0.10;;;0.10;;
11576;SDS011;5844;51.496;6.788;2024-03-02T00:41:50;0.10;;;0.10;;
11576;SDS011;5844;51.496;6.788;2024-03-02T00:44:16;0.10;;;0.10;;
11576;SDS011;5844;51.496;6.788;2024-03-02T00:46:47;0.00;;;0.00;;
11576;SDS011;5844;51.496;6.788;2024-03-02T00:49:23;0.10;;;0.10;;
11576;SDS011;5844;51.496;6.788;2024-03-02T00:51:51;0.10;;;0.10;;
11576;SDS011;5844;51.496;6.788;2024-03-02T00:54:22;0.00;;;0.00;;
11576;SDS011;5844;51.496;6.788;2024-03-02T00:56:49;0.03;;;0.03;;
11576;SDS011;5844;51.496;6.788;2024-03-02T00:59:15;0.03;;;0.03;;
11576;SDS011;5844;51.496;6.788;2024-03-02T01:01:41;0.53;;;0.30;;
11576;SDS011;5844;51.496;6.788;2024-03-02T01:04:08;0.10;;;0.10;;
11576;SDS011;5844;51.496;6.788;2024-03-02T01:06:34;0.13;;;0.13;;
11576;SDS011;5844;51.496;6.788;2024-03-02T01:09:00;0.00;;;0.00;;
11576;SDS011;5844;51.496;6.788;2024-03-02T01:11:26;0.10;;;0.10;;
11576;SDS011;5844;51.496;6.788;2024-03-02T01:13:52;0.00;;;0.00;;
11576;SDS011;5844;51.496;6.788;2024-03-02T01:16:18;0.10;;;0.10;;
11576;SDS011;5844;51.496;6.788;2024-03-02T01:18:43;0.00;;;0.00;;
11576;SDS011;5844;51.496;6.788;2024-03-02T01:21:09;0.10;;;0.10;;
11576;SDS011;5844;51.496;6.788;2024-03-02T01:23:35;0.10;;;0.10;;
11576;SDS011;5844;51.496;6.788;2024-03-02T01:26:00;0.10;;;0.10;;
11576;SDS011;5844;51.496;6.788;2024-03-02T01:28:26;0.10;;;0.10;;
11576;SDS011;5844;51.496;6.788;2024-03-02T01:30:52;0.10;;;0.10;;
11576;SDS011;5844;51.496;6.788;2024-03-02T01:33:17;0.10;;;0.10;;
11576;SDS011;5844;51.496;6.788;2024-03-02T01:35:44;0.00;;;0.00;;
11576;SDS011;5844;51.496;6.788;2024-03-02T01:38:10;0.10;;;0.10;;
11576;SDS011;5844;51.496;6.788;2024-03-02T01:40:36;0.10;;;0.10;;
11576;SDS011;5844;51.496;6.788;2024-03-02T01:43:03;0.00;;;0.00;;
11576;SDS011;5844;51.496;6.788;2024-03-02T01:45:30;0.10;;;0.10;;
11576;SDS011;5844;51.496;6.788;2024-03-02T01:47:56;0.00;;;0.00;;
11576;SDS011;5844;51.496;6.788;2024-03-02T01:50:28;0.10;;;0.10;;
11576;SDS011;5844;51.496;6.788;2024-03-02T01:52:56;0.10;;;0.10;;
11576;SDS011;5844;51.496;6.788;2024-03-02T01:55:22;0.10;;;0.10;;
11576;SDS011;5844;51.496;6.788;2024-03-02T01:57:48;0.10;;;0.10;;
11576;SDS011;5844;51.496;6.788;2024-03-02T02:00:16;0.00;;;0.00;;
11576;SDS011;5844;51.496;6.788;2024-03-02T02:02:42;0.10;;;0.10;;
11576;SDS011;5844;51.496;6.788;2024-03-02T02:05:08;0.00;;;0.00;;
11576;SDS011;5844;51.496;6.788;2024-03-02T02:07:34;0.00;;;0.00;;
11576;SDS011;5844;51.496;6.788;2024-03-02T02:10:00;0.10;;;0.10;;
11576;SDS011;5844;51.496;6.788;2024-03-02T02:12:27;0.20;;;0.20;;
11576;SDS011;5844;51.496;6.788;2024-03-02T02:14:53;0.23;;;0.23;;
11576;SDS011;5844;51.496;6.788;2024-03-02T02:17:18;0.10;;;0.10;;
11576;SDS011;5844;51.496;6.788;2024-03-02T02:19:44;0.10;;;0.10;;
11576;SDS011;5844;51.496;6.788;2024-03-02T02:22:10;0.10;;;0.10;;
11576;SDS011;5844;51.496;6.788;2024-03-02T02:24:39;0.10;;;0.10;;
11576;SDS011;5844;51.496;6.788;2024-03-02T02:27:06;0.10;;;0.10;;
11576;SDS011;5844;51.496;6.788;2024-03-02T02:29:31;0.10;;;0.10;;
11576;SDS011;5844;51.496;6.788;2024-03-02T02:31:57;0.10;;;0.10;;
11576;SDS011;5844;51.496;6.788;2024-03-02T02:34:23;0.10;;;0.10;;
11576;SDS011;5844;51.496;6.788;2024-03-02T02:36:48;0.10;;;0.10;;
11576;SDS011;5844;51.496;6.788;2024-03-02T02:39:15;0.10;;;0.10;;
11576;SDS011;5844;51.496;6.788;2024-03-02T02:41:43;0.10;;;0.10;;
11576;SDS011;5844;51.496;6.788;2024-03-02T02:44:09;0.10;;;0.10;;
11576;SDS011;5844;51.496;6.788;2024-03-02T02:46:37;0.10;;;0.10;;
11576;SDS011;5844;51.496;6.788;2024-03-02T02:49:04;0.10;;;0.10;;
11576;SDS011;5844;51.496;6.788;2024-03-02T02:51:29;0.10;;;0.10;;
11576;SDS011;5844;51.496;6.788;2024-03-02T02:53:55;0.20;;;0.20;;
11576;SDS011;5844;51.496;6.788;2024-03-02T02:56:21;0.10;;;0.10;;
11576;SDS011;5844;51.496;6.788;2024-03-02T02:58:47;0.10;;;0.10;;
11576;SDS011;5844;51.496;6.788;2024-03-02T03:01:12;0.10;;;0.10;;
11576;SDS011;5844;51.496;6.788;2024-03-02T03:03:38;0.20;;;0.20;;
11576;SDS011;5844;51.496;6.788;2024-03-02T03:06:04;0.10;;;0.10;;
11576;SDS011;5844;51.496;6.788;2024-03-02T03:08:30;0.10;;;0.10;;
11576;SDS011;5844;51.496;6.788;2024-03-02T03:10:55;0.20;;;0.20;;
11576;SDS011;5844;51.496;6.788;2024-03-02T03:13:21;0.10;;;0.10;;
11576;SDS011;5844;51.496;6.788;2024-03-02T03:15:46;0.10;;;0.10;;
11576;SDS011;5844;51.496;6.788;2024-03-02T03:18:12;0.10;;;0.10;;
11576;SDS011;5844;51.496;6.788;2024-03-02T03:20:38;0.10;;;0.10;;
11576;SDS011;5844;51.496;6.788;2024-03-02T03:23:03;0.10;;;0.10;;
11576;SDS011;5844;51.496;6.788;2024-03-02T03:25:29;0.10;;;0.10;;
11576;SDS011;5844;51.496;6.788;2024-03-02T03:27:55;0.10;;;0.10;;
11576;SDS011;5844;51.496;6.788;2024-03-02T03:30:21;0.13;;;0.13;;
11576;SDS011;5844;51.496;6.788;2024-03-02T03:32:47;0.10;;;0.10;;
11576;SDS011;5844;51.496;6.788;2024-03-02T03:35:15;0.10;;;0.10;;
11576;SDS011;5844;51.496;6.788;2024-03-02T03:37:41;0.10;;;0.10;;
11576;SDS011;5844;51.496;6.788;2024-03-02T03:40:07;0.10;;;0.10;;
11576;SDS011;5844;51.496;6.788;2024-03-02T03:42:38;0.10;;;0.10;;
11576;SDS011;5844;51.496;6.788;2024-03-02T03:45:04;0.10;;;0.10;;
11576;SDS011;5844;51.496;6.788;2024-03-02T03:47:33;0.00;;;0.00;;
11576;SDS011;5844;51.496;6.788;2024-03-02T03:49:59;0.10;;;0.10;;
11576;SDS011;5844;51.496;6.788;2024-03-02T03:52:25;0.10;;;0.10;;
11576;SDS011;5844;51.496;6.788;2024-03-02T03:54:50;0.10;;;0.10;;
11576;SDS011;5844;51.496;6.788;2024-03-02T03:57:16;0.20;;;0.20;;
11576;SDS011;5844;51.496;6.788;2024-03-02T03:59:42;0.10;;;0.10;;
11576;SDS011;5844;51.496;6.788;2024-03-02T04:02:09;0.10;;;0.10;;
11576;SDS011;5844;51.496;6.788;2024-03-02T04:04:36;0.10;;;0.10;;
11576;SDS011;5844;51.496;6.788;2024-03-02T04:07:02;0.10;;;0.10;;
11576;SDS011;5844;51.496;6.788;2024-03-02T04:09:27;0.10;;;0.10;;
11576;SDS011;5844;51.496;6.788;2024-03-02T04:11:53;0.10;;;0.10;;
11576;SDS011;5844;51.496;6.788;2024-03-02T04:14:19;0.10;;;0.10;;
11576;SDS011;5844;51.496;6.788;2024-03-02T04:16:44;0.00;;;0.00;;
11576;SDS011;5844;51.496;6.788;2024-03-02T04:19:10;0.10;;;0.10;;
11576;SDS011;5844;51.496;6.788;2024-03-02T04:21:36;0.00;;;0.00;;
11576;SDS011;5844;51.496;6.788;2024-03-02T04:24:02;0.00;;;0.00;;
11576;SDS011;5844;51.496;6.788;2024-03-02T04:26:28;0.10;;;0.10;;
11576;SDS011;5844;51.496;6.788;2024-03-02T04:28:54;0.10;;;0.10;;
11576;SDS011;5844;51.496;6.788;2024-03-02T04:31:19;0.00;;;0.00;;
11576;SDS011;5844;51.496;6.788;2024-03-02T04:33:45;0.00;;;0.00;;
11576;SDS011;5844;51.496;6.788;2024-03-02T04:36:11;0.00;;;0.00;;
11576;SDS011;5844;51.496;6.788;2024-03-02T04:38:37;0.00;;;0.00;;
11576;SDS011;5844;51.496;6.788;2024-03-02T04:41:04;0.03;;;0.03;;
11576;SDS011;5844;51.496;6.788;2024-03-02T04:43:33;9.83;;;9.37;;
11576;SDS011;5844;51.496;6.788;2024-03-02T04:45:59;0.00;;;0.00;;
11576;SDS011;5844;51.496;6.788;2024-03-02T04:48:25;0.00;;;0.00;;
11576;SDS011;5844;51.496;6.788;2024-03-02T04:50:51;0.10;;;0.10;;
11576;SDS011;5844;51.496;6.788;2024-03-02T04:53:17;0.00;;;0.00;;
11576;SDS011;5844;51.496;6.788;2024-03-02T04:55:43;0.00;;;0.00;;
11576;SDS011;5844;51.496;6.788;2024-03-02T04:58:08;0.00;;;0.00;;
11576;SDS011;5844;51.496;6.788;2024-03-02T05:00:34;0.00;;;0.00;;
11576;SDS011;5844;51.496;6.788;2024-03-02T05:03:00;0.00;;;0.00;;
11576;SDS011;5844;51.496;6.788;2024-03-02T05:05:27;0.00;;;0.00;;
11576;SDS011;5844;51.496;6.788;2024-03-02T05:07:52;0.10;;;0.10;;
11576;SDS011;5844;51.496;6.788;2024-03-02T05:10:18;0.00;;;0.00;;
11576;SDS011;5844;51.496;6.788;2024-03-02T05:12:43;0.00;;;0.00;;
11576;SDS011;5844;51.496;6.788;2024-03-02T05:15:09;0.00;;;0.00;;
11576;SDS011;5844;51.496;6.788;2024-03-02T05:17:37;0.10;;;0.10;;
11576;SDS011;5844;51.496;6.788;2024-03-02T05:20:08;0.00;;;0.00;;
11576;SDS011;5844;51.496;6.788;2024-03-02T05:22:34;0.00;;;0.00;;
11576;SDS011;5844;51.496;6.788;2024-03-02T05:25:04;0.00;;;0.00;;
11576;SDS011;5844;51.496;6.788;2024-03-02T05:27:30;0.00;;;0.00;;
11576;SDS011;5844;51.496;6.788;2024-03-02T05:29:57;0.00;;;0.00;;
11576;SDS011;5844;51.496;6.788;2024-03-02T05:32:23;0.00;;;0.00;;
11576;SDS011;5844;51.496;6.788;2024-03-02T05:34:49;0.00;;;0.00;;
11576;SDS011;5844;51.496;6.788;2024-03-02T05:37:15;0.00;;;0.00;;
11576;SDS011;5844;51.496;6.788;2024-03-02T05:39:41;0.10;;;0.10;;
11576;SDS011;5844;51.496;6.788;2024-03-02T05:42:08;0.00;;;0.00;;
11576;SDS011;5844;51.496;6.788;2024-03-02T05:44:34;0.00;;;0.00;;
11576;SDS011;5844;51.496;6.788;2024-03-02T05:47:00;0.00;;;0.00;;
11576;SDS011;5844;51.496;6.788;2024-03-02T05:49:26;0.10;;;0.10;;
11576;SDS011;5844;51.496;6.788;2024-03-02T05:51:52;0.00;;;0.00;;
11576;SDS011;5844;51.496;6.788;2024-03-02T05:54:17;0.00;;;0.00;;
11576;SDS011;5844;51.496;6.788;2024-03-02T05:56:43;0.10;;;0.10;;
11576;SDS011;5844;51.496;6.788;2024-03-02T05:59:09;0.10;;;0.10;;
11576;SDS011;5844;51.496;6.788;2024-03-02T06:01:43;0.00;;;0.00;;
11576;SDS011;5844;51.496;6.788;2024-03-02T06:04:16;0.00;;;0.00;;
11576;SDS011;5844;51.496;6.788;2024-03-02T06:06:42;0.00;;;0.00;;
11576;SDS011;5844;51.496;6.788;2024-03-02T06:09:08;0.00;;;0.00;;
11576;SDS011;5844;51.496;6.788;2024-03-02T06:11:37;0.00;;;0.00;;
11576;SDS011;5844;51.496;6.788;2024-03-02T06:14:04;0.00;;;0.00;;
11576;SDS011;5844;51.496;6.788;2024-03-02T06:16:30;0.00;;;0.00;;
11576;SDS011;5844;51.496;6.788;2024-03-02T06:18:57;0.00;;;0.00;;
11576;SDS011;5844;51.496;6.788;2024-03-02T06:21:23;0.00;;;0.00;;
11576;SDS011;5844;51.496;6.788;2024-03-02T06:23:52;0.00;;;0.00;;
11576;SDS011;5844;51.496;6.788;2024-03-02T06:26:18;0.00;;;0.00;;
11576;SDS011;5844;51.496;6.788;2024-03-02T06:28:44;0.00;;;0.00;;
11576;SDS011;5844;51.496;6.788;2024-03-02T06:31:10;0.00;;;0.00;;
11576;SDS011;5844;51.496;6.788;2024-03-02T06:33:36;0.10;;;0.10;;
11576;SDS011;5844;51.496;6.788;2024-03-02T06:36:02;0.00;;;0.00;;
11576;SDS011;5844;51.496;6.788;2024-03-02T06:38:28;0.00;;;0.00;;
11576;SDS011;5844;51.496;6.788;2024-03-02T06:40:54;0.10;;;0.10;;
11576;SDS011;5844;51.496;6.788;2024-03-02T06:43:20;0.00;;;0.00;;
11576;SDS011;5844;51.496;6.788;2024-03-02T06:45:49;0.03;;;0.03;;
11576;SDS011;5844;51.496;6.788;2024-03-02T06:48:16;0.00;;;0.00;;
11576;SDS011;5844;51.496;6.788;2024-03-02T06:50:45;0.00;;;0.00;;
11576;SDS011;5844;51.496;6.788;2024-03-02T06:53:11;0.00;;;0.00;;
11576;SDS011;5844;51.496;6.788;2024-03-02T06:55:37;0.00;;;0.00;;
11576;SDS011;5844;51.496;6.788;2024-03-02T06:58:03;0.00;;;0.00;;
11576;SDS011;5844;51.496;6.788;2024-03-02T07:00:29;0.00;;;0.00;;
11576;SDS011;5844;51.496;6.788;2024-03-02T07:02:54;0.00;;;0.00;;
11576;SDS011;5844;51.496;6.788;2024-03-02T07:05:20;0.00;;;0.00;;
11576;SDS011;5844;51.496;6.788;2024-03-02T07:07:46;0.10;;;0.10;;
11576;SDS011;5844;51.496;6.788;2024-03-02T07:10:11;0.10;;;0.10;;
11576;SDS011;5844;51.496;6.788;2024-03-02T07:12:37;0.00;;;0.00;;
11576;SDS011;5844;51.496;6.788;2024-03-02T07:15:03;0.10;;;0.10;;
11576;SDS011;5844;51.496;6.788;2024-03-02T07:17:29;0.00;;;0.00;;
11576;SDS011;5844;51.496;6.788;2024-03-02T07:19:57;0.10;;;0.10;;
11576;SDS011;5844;51.496;6.788;2024-03-02T07:22:23;0.10;;;0.10;;
11576;SDS011;5844;51.496;6.788;2024-03-02T07:24:49;0.10;;;0.10;;
11576;SDS011;5844;51.496;6.788;2024-03-02T07:27:15;0.03;;;0.03;;
11576;SDS011;5844;51.496;6.788;2024-03-02T07:29:42;0.10;;;0.10;;
11576;SDS011;5844;51.496;6.788;2024-03-02T07:32:08;0.10;;;0.10;;
11576;SDS011;5844;51.496;6.788;2024-03-02T07:34:35;0.10;;;0.10;;
11576;SDS011;5844;51.496;6.788;2024-03-02T07:37:02;0.03;;;0.03;;
11576;SDS011;5844;51.496;6.788;2024-03-02T07:39:28;0.10;;;0.10;;
11576;SDS011;5844;51.496;6.788;2024-03-02T07:41:54;0.10;;;0.10;;
11576;SDS011;5844;51.496;6.788;2024-03-02T07:44:20;0.10;;;0.10;;
11576;SDS011;5844;51.496;6.788;2024-03-02T07:46:46;0.10;;;0.10;;
11576;SDS011;5844;51.496;6.788;2024-03-02T07:49:15;0.10;;;0.10;;
11576;SDS011;5844;51.496;6.788;2024-03-02T07:51:41;0.10;;;0.10;;
11576;SDS011;5844;51.496;6.788;2024-03-02T07:54:07;0.20;;;0.20;;
11576;SDS011;5844;51.496;6.788;2024-03-02T07:56:32;0.10;;;0.10;;
11576;SDS011;5844;51.496;6.788;2024-03-02T07:58:58;0.10;;;0.10;;
11576;SDS011;5844;51.496;6.788;2024-03-02T08:01:29;0.10;;;0.10;;
11576;SDS011;5844;51.496;6.788;2024-03-02T08:03:55;0.10;;;0.10;;
11576;SDS011;5844;51.496;6.788;2024-03-02T08:06:28;0.10;;;0.10;;
11576;SDS011;5844;51.496;6.788;2024-03-02T08:08:55;0.10;;;0.10;;
11576;SDS011;5844;51.496;6.788;2024-03-02T08:11:23;0.10;;;0.10;;
11576;SDS011;5844;51.496;6.788;2024-03-02T08:13:49;0.10;;;0.10;;
11576;SDS011;5844;51.496;6.788;2024-03-02T08:16:16;0.10;;;0.10;;
11576;SDS011;5844;51.496;6.788;2024-03-02T08:18:46;0.10;;;0.10;;
11576;SDS011;5844;51.496;6.788;2024-03-02T08:21:12;0.10;;;0.10;;
11576;SDS011;5844;51.496;6.788;2024-03-02T08:23:38;0.20;;;0.20;;
11576;SDS011;5844;51.496;6.788;2024-03-02T08:26:06;0.10;;;0.10;;
11576;SDS011;5844;51.496;6.788;2024-03-02T08:28:31;0.00;;;0.00;;
11576;SDS011;5844;51.496;6.788;2024-03-02T08:30:58;0.10;;;0.10;;
11576;SDS011;5844;51.496;6.788;2024-03-02T08:33:23;0.20;;;0.20;;
11576;SDS011;5844;51.496;6.788;2024-03-02T08:35:49;0.10;;;0.10;;
11576;SDS011;5844;51.496;6.788;2024-03-02T08:38:15;0.23;;;0.23;;
11576;SDS011;5844;51.496;6.788;2024-03-02T08:40:40;0.10;;;0.10;;
11576;SDS011;5844;51.496;6.788;2024-03-02T08:43:06;0.00;;;0.00;;
11576;SDS011;5844;51.496;6.788;2024-03-02T08:45:32;0.10;;;0.10;;
11576;SDS011;5844;51.496;6.788;2024-03-02T08:47:59;0.10;;;0.10;;
11576;SDS011;5844;51.496;6.788;2024-03-02T08:50:25;0.10;;;0.10;;
11576;SDS011;5844;51.496;6.788;2024-03-02T08:52:51;0.40;;;0.40;;
11576;SDS011;5844;51.496;6.788;2024-03-02T08:55:16;0.30;;;0.30;;
11576;SDS011;5844;51.496;6.788;2024-03-02T08:57:42;0.30;;;0.30;;
11576;SDS011;5844;51.496;6.788;2024-03-02T09:00:08;0.20;;;0.20;;
11576;SDS011;5844;51.496;6.788;2024-03-02T09:02:34;0.40;;;0.40;;
11576;SDS011;5844;51.496;6.788;2024-03-02T09:05:00;0.20;;;0.20;;
11576;SDS011;5844;51.496;6.788;2024-03-02T09:07:26;0.30;;;0.30;;
11576;SDS011;5844;51.496;6.788;2024-03-02T09:09:52;0.40;;;0.40;;
11576;SDS011;5844;51.496;6.788;2024-03-02T09:12:18;0.53;;;0.53;;
11576;SDS011;5844;51.496;6.788;2024-03-02T09:14:44;0.40;;;0.40;;
11576;SDS011;5844;51.496;6.788;2024-03-02T09:17:10;0.60;;;0.60;;
11576;SDS011;5844;51.496;6.788;2024-03-02T09:19:36;6.80;;;1.50;;
11576;SDS011;5844;51.496;6.788;2024-03-02T09:22:03;0.77;;;0.77;;
11576;SDS011;5844;51.496;6.788;2024-03-02T09:24:30;0.87;;;0.87;;
11576;SDS011;5844;51.496;6.788;2024-03-02T09:26:56;11.97;;;1.23;;
11576;SDS011;5844;51.496;6.788;2024-03-02T09:29:22;1.10;;;1.10;;
11576;SDS011;5844;51.496;6.788;2024-03-02T09:31:48;0.70;;;0.70;;
11576;SDS011;5844;51.496;6.788;2024-03-02T09:34:14;0.90;;;0.90;;
11576;SDS011;5844;51.496;6.788;2024-03-02T09:36:40;1.00;;;1.00;;
11576;SDS011;5844;51.496;6.788;2024-03-02T09:39:09;1.27;;;1.23;;
11576;SDS011;5844;51.496;6.788;2024-03-02T09:41:36;1.23;;;1.23;;
11576;SDS011;5844;51.496;6.788;2024-03-02T09:44:02;1.80;;;1.70;;
11576;SDS011;5844;51.496;6.788;2024-03-02T09:46:28;1.47;;;1.47;;
11576;SDS011;5844;51.496;6.788;2024-03-02T09:48:54;1.50;;;1.50;;
11576;SDS011;5844;51.496;6.788;2024-03-02T09:51:20;1.60;;;1.60;;
11576;SDS011;5844;51.496;6.788;2024-03-02T09:53:45;1.60;;;1.60;;
11576;SDS011;5844;51.496;6.788;2024-03-02T09:56:12;1.90;;;1.80;;
11576;SDS011;5844;51.496;6.788;2024-03-02T09:58:38;1.63;;;1.63;;
11576;SDS011;5844;51.496;6.788;2024-03-02T10:01:05;1.00;;;1.00;;
11576;SDS011;5844;51.496;6.788;2024-03-02T10:03:31;1.30;;;1.30;;
11576;SDS011;5844;51.496;6.788;2024-03-02T10:09:03;1.92;;;1.83;;
11576;SDS011;5844;51.496;6.788;2024-03-02T10:11:29;2.20;;;2.10;;
11576;SDS011;5844;51.496;6.788;2024-03-02T10:14:10;2.60;;;2.50;;
11576;SDS011;5844;51.496;6.788;2024-03-02T10:16:38;2.30;;;2.20;;
11576;SDS011;5844;51.496;6.788;2024-03-02T10:19:15;2.50;;;2.40;;
11576;SDS011;5844;51.496;6.788;2024-03-02T10:21:51;2.10;;;2.00;;
11576;SDS011;5844;51.496;6.788;2024-03-02T10:24:21;1.85;;;1.75;;
11576;SDS011;5844;51.496;6.788;2024-03-02T10:26:47;1.00;;;1.00;;
11576;SDS011;5844;51.496;6.788;2024-03-02T10:29:13;2.17;;;2.08;;
11576;SDS011;5844;51.496;6.788;2024-03-02T10:31:42;2.30;;;2.20;;
11576;SDS011;5844;51.496;6.788;2024-03-02T10:34:09;1.55;;;1.55;;
11576;SDS011;5844;51.496;6.788;2024-03-02T10:36:36;2.42;;;2.33;;
11576;SDS011;5844;51.496;6.788;2024-03-02T10:39:05;1.40;;;1.40;;
11576;SDS011;5844;51.496;6.788;2024-03-02T10:41:36;2.03;;;1.92;;
11576;SDS011;5844;51.496;6.788;2024-03-02T10:44:03;0.93;;;0.93;;
11576;SDS011;5844;51.496;6.788;2024-03-02T10:46:33;1.90;;;1.80;;
11576;SDS011;5844;51.496;6.788;2024-03-02T10:49:01;2.30;;;2.20;;
11576;SDS011;5844;51.496;6.788;2024-03-02T10:51:28;2.60;;;2.50;;
11576;SDS011;5844;51.496;6.788;2024-03-02T10:53:57;2.47;;;2.38;;
11576;SDS011;5844;51.496;6.788;2024-03-02T10:56:39;2.50;;;2.40;;
11576;SDS011;5844;51.496;6.788;2024-03-02T10:59:13;2.55;;;2.45;;
11576;SDS011;5844;51.496;6.788;2024-03-02T11:01:50;2.15;;;2.05;;
11576;SDS011;5844;51.496;6.788;2024-03-02T11:04:18;3.30;;;2.35;;
11576;SDS011;5844;51.496;6.788;2024-03-02T11:06:50;1.60;;;1.60;;
11576;SDS011;5844;51.496;6.788;2024-03-02T11:09:20;2.35;;;2.25;;
11576;SDS011;5844;51.496;6.788;2024-03-02T11:12:02;2.15;;;2.05;;
11576;SDS011;5844;51.496;6.788;2024-03-02T11:14:31;1.90;;;1.80;;
11576;SDS011;5844;51.496;6.788;2024-03-02T11:17:01;2.40;;;2.30;;
11576;SDS011;5844;51.496;6.788;2024-03-02T11:19:28;2.33;;;2.22;;
11576;SDS011;5844;51.496;6.788;2024-03-02T11:21:55;2.50;;;2.40;;
11576;SDS011;5844;51.496;6.788;2024-03-02T11:26:48;2.33;;;2.22;;
11576;SDS011;5844;51.496;6.788;2024-03-02T11:32:00;2.97;;;2.88;;
11576;SDS011;5844;51.496;6.788;2024-03-02T11:34:45;2.63;;;2.53;;
11576;SDS011;5844;51.496;6.788;2024-03-02T11:37:13;2.40;;;2.30;;
11576;SDS011;5844;51.496;6.788;2024-03-02T11:39:39;2.70;;;2.60;;
11576;SDS011;5844;51.496;6.788;2024-03-02T11:42:08;2.90;;;2.80;;
11576;SDS011;5844;51.496;6.788;2024-03-02T11:44:36;2.90;;;2.80;;
11576;SDS011;5844;51.496;6.788;2024-03-02T11:47:05;2.60;;;2.50;;
11576;SDS011;5844;51.496;6.788;2024-03-02T11:49:45;2.60;;;2.50;;
11576;SDS011;5844;51.496;6.788;2024-03-02T11:52:14;2.67;;;2.58;;
11576;SDS011;5844;51.496;6.788;2024-03-02T11:54:43;2.50;;;2.40;;
11576;SDS011;5844;51.496;6.788;2024-03-02T11:57:16;2.65;;;2.55;;
11576;SDS011;5844;51.496;6.788;2024-03-02T11:59:48;3.15;;;3.05;;
11576;SDS011;5844;51.496;6.788;2024-03-02T12:02:17;3.28;;;3.17;;
11576;SDS011;5844;51.496;6.788;2024-03-02T12:04:47;2.70;;;2.60;;
11576;SDS011;5844;51.496;6.788;2024-03-02T12:07:20;3.60;;;3.50;;
11576;SDS011;5844;51.496;6.788;2024-03-02T12:09:47;3.20;;;3.10;;
11576;SDS011;5844;51.496;6.788;2024-03-02T12:12:13;3.10;;;3.00;;
11576;SDS011;5844;51.496;6.788;2024-03-02T12:14:49;3.50;;;3.30;;
11576;SDS011;5844;51.496;6.788;2024-03-02T12:17:17;2.92;;;2.83;;
11576;SDS011;5844;51.496;6.788;2024-03-02T12:19:43;2.70;;;2.60;;
11576;SDS011;5844;51.496;6.788;2024-03-02T12:22:11;2.72;;;2.63;;
11576;SDS011;5844;51.496;6.788;2024-03-02T12:24:36;2.40;;;2.30;;
11576;SDS011;5844;51.496;6.788;2024-03-02T12:27:02;2.22;;;2.13;;
11576;SDS011;5844;51.496;6.788;2024-03-02T12:29:30;2.03;;;1.92;;
11576;SDS011;5844;51.496;6.788;2024-03-02T12:31:56;2.10;;;2.00;;
11576;SDS011;5844;51.496;6.788;2024-03-02T12:34:22;2.38;;;2.28;;
11576;SDS011;5844;51.496;6.788;2024-03-02T12:36:48;2.00;;;1.90;;
11576;SDS011;5844;51.496;6.788;2024-03-02T12:39:17;1.55;;;1.55;;
11576;SDS011;5844;51.496;6.788;2024-03-02T12:41:44;1.80;;;1.70;;
11576;SDS011;5844;51.496;6.788;2024-03-02T12:44:11;1.75;;;1.70;;
11576;SDS011;5844;51.496;6.788;2024-03-02T12:46:36;2.10;;;2.00;;
11576;SDS011;5844;51.496;6.788;2024-03-02T12:49:09;1.60;;;1.60;;
11576;SDS011;5844;51.496;6.788;2024-03-02T12:51:36;1.60;;;1.60;;
11576;SDS011;5844;51.496;6.788;2024-03-02T12:54:09;1.20;;;1.20;;
11576;SDS011;5844;51.496;6.788;2024-03-02T12:56:38;1.55;;;1.55;;
11576;SDS011;5844;51.496;6.788;2024-03-02T12:59:10;1.10;;;1.10;;
11576;SDS011;5844;51.496;6.788;2024-03-02T13:01:53;2.10;;;2.00;;
11576;SDS011;5844;51.496;6.788;2024-03-02T13:04:25;1.75;;;1.70;;
11576;SDS011;5844;51.496;6.788;2024-03-02T13:06:53;1.25;;;1.25;;
11576;SDS011;5844;51.496;6.788;2024-03-02T13:09:22;1.13;;;1.13;;
11576;SDS011;5844;51.496;6.788;2024-03-02T13:11:49;1.10;;;1.10;;
11576;SDS011;5844;51.496;6.788;2024-03-02T13:14:14;1.10;;;1.10;;
11576;SDS011;5844;51.496;6.788;2024-03-02T13:16:40;1.10;;;1.10;;
11576;SDS011;5844;51.496;6.788;2024-03-02T13:19:07;1.00;;;1.00;;
11576;SDS011;5844;51.496;6.788;2024-03-02T13:21:34;1.10;;;1.10;;
11576;SDS011;5844;51.496;6.788;2024-03-02T13:23:59;1.15;;;1.15;;
11576;SDS011;5844;51.496;6.788;2024-03-02T13:26:26;1.40;;;1.40;;
11576;SDS011;5844;51.496;6.788;2024-03-02T13:28:52;0.95;;;0.95;;
11576;SDS011;5844;51.496;6.788;2024-03-02T13:31:18;1.00;;;1.00;;
11576;SDS011;5844;51.496;6.788;2024-03-02T13:33:43;1.00;;;1.00;;
11576;SDS011;5844;51.496;6.788;2024-03-02T13:36:09;1.10;;;1.10;;
11576;SDS011;5844;51.496;6.788;2024-03-02T13:38:35;1.20;;;1.20;;
11576;SDS011;5844;51.496;6.788;2024-03-02T13:41:01;1.20;;;1.20;;
11576;SDS011;5844;51.496;6.788;2024-03-02T13:43:27;1.00;;;1.00;;
11576;SDS011;5844;51.496;6.788;2024-03-02T13:45:53;1.10;;;1.10;;
11576;SDS011;5844;51.496;6.788;2024-03-02T13:48:18;1.10;;;1.10;;
11576;SDS011;5844;51.496;6.788;2024-03-02T13:50:45;1.30;;;1.30;;
11576;SDS011;5844;51.496;6.788;2024-03-02T13:53:11;1.40;;;1.40;;
11576;SDS011;5844;51.496;6.788;2024-03-02T13:55:37;1.10;;;1.10;;
11576;SDS011;5844;51.496;6.788;2024-03-02T13:58:03;1.10;;;1.10;;
11576;SDS011;5844;51.496;6.788;2024-03-02T14:00:28;1.07;;;1.07;;
11576;SDS011;5844;51.496;6.788;2024-03-02T14:02:55;1.10;;;1.10;;
11576;SDS011;5844;51.496;6.788;2024-03-02T14:05:20;1.10;;;1.10;;
11576;SDS011;5844;51.496;6.788;2024-03-02T14:07:46;1.20;;;1.20;;
11576;SDS011;5844;51.496;6.788;2024-03-02T14:10:12;1.10;;;1.10;;
11576;SDS011;5844;51.496;6.788;2024-03-02T14:12:38;1.50;;;1.50;;
11576;SDS011;5844;51.496;6.788;2024-03-02T14:15:06;1.10;;;1.10;;
11576;SDS011;5844;51.496;6.788;2024-03-02T14:17:32;1.10;;;1.10;;
11576;SDS011;5844;51.496;6.788;2024-03-02T14:19:58;1.10;;;1.10;;
11576;SDS011;5844;51.496;6.788;2024-03-02T14:22:26;1.20;;;1.20;;
11576;SDS011;5844;51.496;6.788;2024-03-02T14:24:52;1.20;;;1.20;;
11576;SDS011;5844;51.496;6.788;2024-03-02T14:27:18;1.03;;;1.03;;
11576;SDS011;5844;51.496;6.788;2024-03-02T14:29:44;1.10;;;1.10;;
11576;SDS011;5844;51.496;6.788;2024-03-02T14:32:09;1.10;;;1.10;;
11576;SDS011;5844;51.496;6.788;2024-03-02T14:34:35;1.20;;;1.20;;
11576;SDS011;5844;51.496;6.788;2024-03-02T14:37:01;1.10;;;1.10;;
11576;SDS011;5844;51.496;6.788;2024-03-02T14:39:27;2.10;;;2.00;;
11576;SDS011;5844;51.496;6.788;2024-03-02T14:41:54;2.30;;;2.20;;
11576;SDS011;5844;51.496;6.788;2024-03-02T14:44:20;2.60;;;2.50;;
11576;SDS011;5844;51.496;6.788;2024-03-02T14:46:48;2.20;;;2.10;;
11576;SDS011;5844;51.496;6.788;2024-03-02T14:49:14;1.40;;;1.40;;
11576;SDS011;5844;51.496;6.788;2024-03-02T14:51:40;1.60;;;1.60;;
11576;SDS011;5844;51.496;6.788;2024-03-02T14:54:06;1.17;;;1.17;;
11576;SDS011;5844;51.496;6.788;2024-03-02T14:56:32;1.20;;;1.20;;
11576;SDS011;5844;51.496;6.788;2024-03-02T14:58:57;1.10;;;1.10;;
11576;SDS011;5844;51.496;6.788;2024-03-02T15:01:23;1.25;;;1.25;;
11576;SDS011;5844;51.496;6.788;2024-03-02T15:03:52;1.30;;;1.30;;
11576;SDS011;5844;51.496;6.788;2024-03-02T15:06:18;1.17;;;1.17;;
11576;SDS011;5844;51.496;6.788;2024-03-02T15:08:44;1.20;;;1.20;;
11576;SDS011;5844;51.496;6.788;2024-03-02T15:11:13;1.30;;;1.30;;